createdAt,value
2023-01-29T00:00:10.585Z,-0.72
2023-01-29T00:02:42.539Z,-0.65
2023-01-29T00:05:26.105Z,-0.55
2023-01-29T00:07:56.963Z,-0.64
2023-01-29T00:10:25.606Z,-0.51
2023-01-29T00:12:53.054Z,-0.54
2023-01-29T00:15:21.852Z,-0.53
2023-01-29T00:17:50.848Z,-0.47
2023-01-29T00:20:18.114Z,-0.51
2023-01-29T00:22:44.947Z,-0.47
2023-01-29T00:25:14.199Z,-0.47
2023-01-29T00:27:40.809Z,-0.46
2023-01-29T00:30:13.893Z,-0.46
2023-01-29T00:32:40.922Z,-0.45
2023-01-29T00:35:08.932Z,-0.44
2023-01-29T00:37:35.767Z,-0.44
2023-01-29T00:40:10.559Z,-0.41
2023-01-29T00:42:56.250Z,-0.44
2023-01-29T00:45:22.910Z,-0.41
2023-01-29T00:47:54.215Z,-0.41
2023-01-29T00:50:20.887Z,-0.39
2023-01-29T00:52:49.736Z,-0.39
2023-01-29T00:55:16.353Z,-0.38
2023-01-29T00:57:43.124Z,-0.39
2023-01-29T01:00:16.886Z,-0.36
2023-01-29T01:03:02.172Z,-0.43
2023-01-29T01:05:28.848Z,-0.37
2023-01-29T01:07:57.980Z,-0.34
2023-01-29T01:10:26.420Z,-0.31
2023-01-29T01:13:02.626Z,-0.31
2023-01-29T01:15:34.325Z,-0.32
2023-01-29T01:18:01.944Z,-0.31
2023-01-29T01:20:31.703Z,-0.30
2023-01-29T01:23:00.794Z,-0.33
2023-01-29T01:25:27.528Z,-0.30
2023-01-29T01:27:56.092Z,-0.30
2023-01-29T01:30:23.549Z,-0.28
2023-01-29T01:32:55.414Z,-0.26
2023-01-29T01:35:24.093Z,-0.21
2023-01-29T01:37:53.015Z,-0.25
2023-01-29T01:40:22.491Z,-0.28
2023-01-29T01:42:57.989Z,-0.25
2023-01-29T01:45:27.775Z,-0.30
2023-01-29T01:48:06.607Z,-0.24
2023-01-29T01:50:35.646Z,-0.27
2023-01-29T01:53:09.149Z,-0.24
2023-01-29T01:55:40.069Z,-0.24
2023-01-29T01:58:18.530Z,-0.24
2023-01-29T02:00:47.812Z,-0.24
2023-01-29T02:03:37.604Z,-0.23
2023-01-29T02:06:22.856Z,-0.29
2023-01-29T02:09:10.886Z,-0.28
2023-01-29T02:11:38.110Z,-0.31
2023-01-29T02:14:04.733Z,-0.30
2023-01-29T02:16:34.376Z,-0.27
2023-01-29T02:19:01.428Z,-0.28
2023-01-29T02:21:30.689Z,-0.24
2023-01-29T02:24:43.902Z,-0.24
2023-01-29T02:27:16.150Z,-0.27
2023-01-29T02:29:47.939Z,-0.23
2023-01-29T02:32:23.279Z,-0.22
2023-01-29T02:35:27.353Z,-0.22
2023-01-29T02:37:56.614Z,-0.23
2023-01-29T02:40:37.032Z,-0.20
2023-01-29T02:43:18.325Z,-0.21
2023-01-29T02:45:47.846Z,-0.24
2023-01-29T02:48:22.515Z,-0.23
2023-01-29T02:51:06.900Z,-0.23
2023-01-29T02:53:56.541Z,-0.23
2023-01-29T02:56:32.131Z,-0.21
2023-01-29T02:59:11.977Z,-0.21
2023-01-29T03:02:01.167Z,-0.18
2023-01-29T03:04:38.557Z,-0.18
2023-01-29T03:07:10.766Z,-0.21
2023-01-29T03:09:42.616Z,-0.23
2023-01-29T03:12:33.645Z,-0.21
2023-01-29T03:15:16.547Z,-0.21
2023-01-29T03:17:55.172Z,-0.17
2023-01-29T03:20:29.795Z,-0.19
2023-01-29T03:23:02.724Z,-0.19
2023-01-29T03:25:49.098Z,-0.19
2023-01-29T03:28:36.337Z,-0.22
2023-01-29T03:31:25.431Z,-0.18
2023-01-29T03:34:08.110Z,-0.13
2023-01-29T03:36:45.235Z,-0.14
2023-01-29T03:39:15.769Z,-0.19
2023-01-29T03:41:59.093Z,-0.18
2023-01-29T03:44:37.265Z,-0.16
2023-01-29T03:47:23.432Z,-0.19
2023-01-29T03:49:59.031Z,-0.17
2023-01-29T03:52:40.308Z,-0.14
2023-01-29T03:55:36.140Z,-0.18
2023-01-29T03:58:25.286Z,-0.15
2023-01-29T04:03:45.783Z,-0.14
2023-01-29T04:06:29.576Z,-0.14
2023-01-29T04:08:59.788Z,-0.17
2023-01-29T04:11:29.339Z,-0.14
2023-01-29T04:13:57.871Z,-0.11
2023-01-29T04:16:29.353Z,-0.14
2023-01-29T04:18:56.721Z,-0.11
2023-01-29T04:21:27.583Z,-0.16
2023-01-29T04:23:56.462Z,-0.13
2023-01-29T04:26:28.949Z,-0.17
2023-01-29T04:29:33.748Z,-0.13
2023-01-29T04:32:21.136Z,-0.14
2023-01-29T04:34:59.721Z,-0.13
2023-01-29T04:37:29.103Z,-0.14
2023-01-29T04:40:17.805Z,-0.12
2023-01-29T04:43:00.927Z,-0.12
2023-01-29T04:45:36.541Z,-0.14
2023-01-29T04:48:26.434Z,-0.15
2023-01-29T04:50:58.872Z,-0.13
2023-01-29T04:53:43.574Z,-0.12
2023-01-29T04:56:36.122Z,-0.10
2023-01-29T04:59:08.186Z,-0.14
2023-01-29T05:01:41.144Z,-0.12
2023-01-29T05:04:14.544Z,-0.13
2023-01-29T05:06:42.666Z,-0.13
2023-01-29T05:09:15.614Z,-0.16
2023-01-29T05:11:43.351Z,-0.15
2023-01-29T05:14:14.718Z,-0.14
2023-01-29T05:16:51.646Z,-0.17
2023-01-29T05:19:18.206Z,-0.15
2023-01-29T05:21:49.986Z,-0.15
2023-01-29T05:24:25.283Z,-0.13
2023-01-29T05:27:13.378Z,-0.14
2023-01-29T05:29:45.294Z,-0.18
2023-01-29T05:32:15.280Z,-0.17
2023-01-29T05:34:44.137Z,-0.19
2023-01-29T05:37:11.148Z,-0.17
2023-01-29T05:39:39.908Z,-0.23
2023-01-29T05:42:08.739Z,-0.25
2023-01-29T05:44:35.281Z,-0.26
2023-01-29T05:47:02.813Z,-0.26
2023-01-29T05:49:29.482Z,-0.26
2023-01-29T05:51:58.327Z,-0.24
2023-01-29T05:54:27.076Z,-0.21
2023-01-29T05:56:53.598Z,-0.28
2023-01-29T05:59:22.719Z,-0.26
2023-01-29T06:01:49.295Z,-0.23
2023-01-29T06:04:18.156Z,-0.37
2023-01-29T06:06:44.695Z,-0.32
2023-01-29T06:09:16.011Z,-0.31
2023-01-29T06:11:42.543Z,-0.22
2023-01-29T06:14:09.135Z,-0.23
2023-01-29T06:16:35.761Z,-0.23
2023-01-29T06:19:04.807Z,-0.27
2023-01-29T06:21:31.468Z,-0.24
2023-01-29T06:24:01.064Z,-0.25
2023-01-29T06:26:29.839Z,-0.21
2023-01-29T06:28:56.395Z,-0.21
2023-01-29T06:31:42.990Z,-0.22
2023-01-29T06:34:09.835Z,-0.22
2023-01-29T06:36:41.880Z,-0.25
2023-01-29T06:39:08.494Z,-0.24
2023-01-29T06:41:35.144Z,-0.21
2023-01-29T06:44:01.858Z,-0.23
2023-01-29T06:46:30.806Z,-0.22
2023-01-29T06:49:00.896Z,-0.22
2023-01-29T06:51:27.475Z,-0.22
2023-01-29T06:53:56.680Z,-0.25
2023-01-29T06:56:25.543Z,-0.24
2023-01-29T06:58:54.526Z,-0.24
2023-01-29T07:01:36.869Z,-0.22
2023-01-29T07:04:08.297Z,-0.25
2023-01-29T07:06:34.856Z,-0.25
2023-01-29T07:09:04.164Z,-0.23
2023-01-29T07:11:30.783Z,-0.24
2023-01-29T07:13:57.527Z,-0.22
2023-01-29T07:16:25.103Z,-0.25
2023-01-29T07:18:56.512Z,-0.22
2023-01-29T07:21:30.419Z,-0.22
2023-01-29T07:23:59.904Z,-0.25
2023-01-29T07:26:26.643Z,-0.22
2023-01-29T07:28:53.188Z,-0.22
2023-01-29T07:31:20.040Z,-0.20
2023-01-29T07:33:46.765Z,-0.21
2023-01-29T07:36:15.860Z,-0.24
2023-01-29T07:38:42.502Z,-0.21
2023-01-29T07:41:12.330Z,-0.18
2023-01-29T07:43:38.896Z,-0.15
2023-01-29T07:46:11.039Z,-0.17
2023-01-29T07:48:42.188Z,-0.11
2023-01-29T07:51:11.182Z,-0.13
2023-01-29T07:53:40.270Z,-0.11
2023-01-29T07:56:07.090Z,-0.11
2023-01-29T07:58:36.848Z,-0.11
2023-01-29T08:01:10.184Z,-0.05
2023-01-29T08:03:41.593Z,-0.03
2023-01-29T08:06:10.584Z,-0.05
2023-01-29T08:08:39.549Z,0.07
2023-01-29T08:11:08.610Z,-0.05
2023-01-29T08:13:35.203Z,-0.09
2023-01-29T08:16:04.693Z,-0.07
2023-01-29T08:18:33.649Z,-0.02
2023-01-29T08:21:01.781Z,-0.01
2023-01-29T08:23:30.613Z,0.01
2023-01-29T08:26:00.176Z,0.07
2023-01-29T08:28:29.117Z,0.11
2023-01-29T08:30:55.876Z,0.10
2023-01-29T08:33:29.679Z,0.10
2023-01-29T08:36:04.597Z,0.01
2023-01-29T08:38:33.805Z,0.12
2023-01-29T08:41:00.345Z,0.04
2023-01-29T08:43:29.135Z,0.11
2023-01-29T08:45:57.978Z,0.14
2023-01-29T08:48:25.276Z,0.18
2023-01-29T08:50:51.973Z,0.28
2023-01-29T08:53:24.649Z,0.32
2023-01-29T08:55:53.455Z,0.20
2023-01-29T08:58:23.590Z,0.28
2023-01-29T09:00:51.294Z,0.19
2023-01-29T09:03:19.975Z,0.16
2023-01-29T09:05:46.876Z,0.36
2023-01-29T09:08:13.543Z,0.33
2023-01-29T09:10:42.338Z,0.41
2023-01-29T09:13:08.902Z,0.52
2023-01-29T09:15:37.755Z,0.66
2023-01-29T09:18:05.321Z,0.55
2023-01-29T09:20:34.165Z,0.55
2023-01-29T09:23:05.884Z,0.73
2023-01-29T09:25:32.584Z,0.90
2023-01-29T09:28:02.151Z,0.93
2023-01-29T09:30:32.071Z,0.69
2023-01-29T09:33:02.294Z,0.66
2023-01-29T09:35:28.860Z,0.71
2023-01-29T09:37:55.642Z,0.96
2023-01-29T09:40:40.955Z,0.86
2023-01-29T09:43:16.490Z,0.85
2023-01-29T09:45:54.125Z,0.90
2023-01-29T09:48:29.342Z,1.16
2023-01-29T09:50:59.948Z,1.25
2023-01-29T09:53:42.152Z,1.30
2023-01-29T09:56:28.762Z,0.90
2023-01-29T09:59:00.642Z,0.98
2023-01-29T10:01:54.166Z,1.17
2023-01-29T10:04:42.364Z,1.16
2023-01-29T10:07:11.821Z,1.10
2023-01-29T10:10:07.644Z,1.30
2023-01-29T10:12:48.800Z,1.34
2023-01-29T10:15:38.969Z,1.40
2023-01-29T10:18:07.812Z,1.12
2023-01-29T10:20:34.638Z,0.98
2023-01-29T10:23:13.037Z,1.09
2023-01-29T10:25:41.515Z,0.88
2023-01-29T10:28:26.605Z,0.89
2023-01-29T10:31:03.993Z,0.78
2023-01-29T10:34:01.448Z,0.84
2023-01-29T10:36:38.799Z,0.87
2023-01-29T10:39:05.477Z,0.99
2023-01-29T10:41:34.555Z,1.01
2023-01-29T10:44:03.330Z,0.91
2023-01-29T10:46:50.975Z,1.00
2023-01-29T10:49:41.678Z,0.95
2023-01-29T10:52:29.833Z,0.99
2023-01-29T10:55:15.223Z,1.08
2023-01-29T10:58:25.535Z,1.12
2023-01-29T11:00:54.625Z,1.06
2023-01-29T11:03:29.884Z,1.16
2023-01-29T11:06:05.752Z,1.39
2023-01-29T11:08:42.755Z,1.29
2023-01-29T11:11:18.838Z,1.06
2023-01-29T11:13:51.278Z,1.06
2023-01-29T11:16:18.061Z,1.25
2023-01-29T11:18:53.562Z,1.25
2023-01-29T11:21:20.809Z,1.20
2023-01-29T11:23:47.743Z,1.08
2023-01-29T11:26:22.288Z,1.36
2023-01-29T11:28:50.827Z,1.13
2023-01-29T11:31:38.629Z,1.17
2023-01-29T11:34:27.627Z,0.97
2023-01-29T11:36:58.621Z,0.79
2023-01-29T11:39:29.032Z,1.05
2023-01-29T11:41:57.935Z,1.12
2023-01-29T11:44:39.913Z,1.30
2023-01-29T11:47:21.267Z,1.08
2023-01-29T11:50:00.688Z,1.10
2023-01-29T11:52:41.036Z,1.22
2023-01-29T11:55:15.392Z,1.22
2023-01-29T11:57:47.264Z,1.14
2023-01-29T12:00:29.781Z,1.13
2023-01-29T12:03:31.825Z,1.25
2023-01-29T12:06:01.349Z,1.37
2023-01-29T12:08:35.235Z,1.32
2023-01-29T12:11:16.048Z,1.27
2023-01-29T12:13:45.753Z,1.05
2023-01-29T12:16:31.003Z,1.22
2023-01-29T12:19:14.347Z,1.27
2023-01-29T12:21:47.387Z,1.21
2023-01-29T12:24:19.940Z,1.21
2023-01-29T12:26:56.021Z,1.16
2023-01-29T12:29:40.000Z,1.08
2023-01-29T12:32:12.732Z,1.12
2023-01-29T12:34:53.388Z,1.15
2023-01-29T12:37:54.220Z,1.35
2023-01-29T12:40:26.954Z,1.18
2023-01-29T12:43:01.869Z,1.16
2023-01-29T12:45:30.807Z,1.20
2023-01-29T12:48:12.129Z,1.13
2023-01-29T12:50:39.013Z,1.20
2023-01-29T12:53:13.344Z,1.34
2023-01-29T12:55:45.221Z,1.36
2023-01-29T12:58:20.074Z,1.05
2023-01-29T13:00:54.267Z,1.24
2023-01-29T13:03:29.875Z,1.24
2023-01-29T13:06:03.333Z,1.18
2023-01-29T13:08:39.582Z,1.28
2023-01-29T13:11:35.526Z,1.20
2023-01-29T13:14:45.439Z,1.15
2023-01-29T13:17:37.590Z,1.25
2023-01-29T13:20:21.603Z,1.42
2023-01-29T13:22:54.485Z,1.32
2023-01-29T13:25:21.488Z,1.13
2023-01-29T13:27:51.581Z,1.25
2023-01-29T13:30:28.411Z,1.33
2023-01-29T13:33:09.132Z,1.26
2023-01-29T13:35:43.024Z,1.07
2023-01-29T13:38:32.247Z,1.31
2023-01-29T13:41:05.218Z,1.51
2023-01-29T13:43:37.400Z,1.21
2023-01-29T13:46:22.299Z,1.25
2023-01-29T13:48:50.981Z,1.21
2023-01-29T13:51:22.773Z,1.29
2023-01-29T13:54:19.955Z,1.29
2023-01-29T13:56:59.371Z,1.48
2023-01-29T13:59:53.059Z,1.58
2023-01-29T14:02:23.441Z,1.68
2023-01-29T14:04:53.354Z,1.62
2023-01-29T14:07:40.984Z,1.86
2023-01-29T14:10:22.649Z,1.66
2023-01-29T14:12:52.042Z,1.82
2023-01-29T14:15:22.111Z,1.49
2023-01-29T14:18:00.043Z,1.65
2023-01-29T14:20:52.672Z,1.62
2023-01-29T14:23:36.155Z,1.68
2023-01-29T14:26:07.927Z,1.72
2023-01-29T14:28:35.352Z,1.91
2023-01-29T14:31:05.763Z,1.93
2023-01-29T14:33:36.769Z,1.73
2023-01-29T14:36:06.765Z,1.67
2023-01-29T14:38:36.359Z,1.69
2023-01-29T14:41:20.882Z,1.84
2023-01-29T14:43:49.696Z,1.44
2023-01-29T14:46:43.343Z,1.52
2023-01-29T14:49:12.993Z,1.59
2023-01-29T14:51:44.034Z,1.57
2023-01-29T14:54:40.772Z,1.29
2023-01-29T14:57:13.145Z,1.23
2023-01-29T14:59:57.972Z,1.18
2023-01-29T15:02:46.545Z,1.31
2023-01-29T15:05:28.880Z,1.33
2023-01-29T15:08:03.674Z,1.21
2023-01-29T15:10:41.346Z,1.35
2023-01-29T15:13:31.077Z,1.28
2023-01-29T15:16:04.596Z,1.18
2023-01-29T15:18:39.960Z,1.37
2023-01-29T15:21:18.027Z,1.29
2023-01-29T15:23:50.504Z,1.17
2023-01-29T15:26:26.958Z,1.21
2023-01-29T15:29:04.189Z,1.28
2023-01-29T15:31:31.943Z,1.26
2023-01-29T15:34:06.515Z,1.40
2023-01-29T15:36:37.315Z,1.26
2023-01-29T15:39:09.969Z,1.20
2023-01-29T15:41:36.559Z,1.31
2023-01-29T15:44:03.156Z,1.09
2023-01-29T15:46:38.741Z,1.14
2023-01-29T15:49:19.313Z,1.10
2023-01-29T15:51:48.472Z,1.08
2023-01-29T15:54:16.858Z,0.89
2023-01-29T15:56:53.314Z,0.91
2023-01-29T15:59:25.680Z,0.82
2023-01-29T16:01:53.249Z,0.96
2023-01-29T16:04:31.468Z,1.08
2023-01-29T16:07:04.306Z,1.13
2023-01-29T16:09:30.955Z,1.10
2023-01-29T16:11:58.955Z,1.18
2023-01-29T16:14:30.035Z,1.20
2023-01-29T16:16:56.783Z,1.21
2023-01-29T16:19:26.167Z,1.16
2023-01-29T16:22:02.013Z,1.15
2023-01-29T16:24:33.775Z,1.19
2023-01-29T16:27:08.230Z,1.15
2023-01-29T16:29:35.686Z,1.15
2023-01-29T16:32:06.252Z,1.12
2023-01-29T16:34:48.072Z,1.05
2023-01-29T16:37:30.410Z,0.99
2023-01-29T16:39:59.494Z,0.96
2023-01-29T16:42:30.563Z,0.98
2023-01-29T16:45:02.515Z,0.94
2023-01-29T16:47:33.014Z,0.93
2023-01-29T16:50:01.038Z,0.95
2023-01-29T16:52:32.022Z,0.91
2023-01-29T16:55:11.397Z,0.94
2023-01-29T16:57:40.305Z,0.90
2023-01-29T17:00:13.335Z,0.93
2023-01-29T17:02:40.353Z,0.72
2023-01-29T17:05:09.510Z,0.71
2023-01-29T17:07:39.410Z,0.54
2023-01-29T17:10:07.531Z,0.63
2023-01-29T17:12:34.932Z,0.73
2023-01-29T17:15:28.287Z,0.64
2023-01-29T17:17:54.866Z,0.65
2023-01-29T17:20:24.198Z,0.69
2023-01-29T17:22:55.334Z,0.59
2023-01-29T17:25:22.165Z,0.50
2023-01-29T17:27:51.782Z,0.43
2023-01-29T17:30:21.461Z,0.47
2023-01-29T17:32:50.518Z,0.39
2023-01-29T17:35:17.830Z,0.40
2023-01-29T17:37:44.734Z,0.28
2023-01-29T17:40:29.698Z,0.33
2023-01-29T17:42:56.241Z,0.33
2023-01-29T17:45:22.864Z,0.29
2023-01-29T17:47:56.418Z,0.26
2023-01-29T17:50:27.640Z,0.29
2023-01-29T17:52:57.245Z,0.28
2023-01-29T17:55:24.149Z,0.26
2023-01-29T17:57:53.028Z,0.27
2023-01-29T18:00:22.715Z,0.27
2023-01-29T18:02:49.429Z,0.30
2023-01-29T18:05:19.371Z,0.28
2023-01-29T18:07:47.792Z,0.30
2023-01-29T18:10:21.100Z,0.32
2023-01-29T18:12:49.862Z,0.31
2023-01-29T18:15:19.081Z,0.08
2023-01-29T18:17:48.564Z,-0.22
2023-01-29T18:20:23.781Z,-0.09
2023-01-29T18:22:50.559Z,-0.32
2023-01-29T18:25:19.878Z,-0.27
2023-01-29T18:27:46.631Z,-0.54
2023-01-29T18:30:16.166Z,-0.69
2023-01-29T18:32:42.786Z,-0.65
2023-01-29T18:35:09.675Z,-0.69
2023-01-29T18:37:38.620Z,-0.62
2023-01-29T18:40:05.988Z,-0.67
2023-01-29T18:42:33.450Z,-0.73
2023-01-29T18:45:03.710Z,-1.03
2023-01-29T18:47:32.809Z,-1.00
2023-01-29T18:50:01.644Z,-0.88
2023-01-29T18:52:28.182Z,-0.92
2023-01-29T18:55:01.098Z,-0.96
2023-01-29T18:58:34.231Z,-1.02
2023-01-29T19:00:17.902Z,-1.01
2023-01-29T19:02:45.368Z,-1.03
2023-01-29T19:05:15.550Z,-1.05
2023-01-29T19:07:42.297Z,-1.03
2023-01-29T19:10:12.719Z,-1.01
2023-01-29T19:12:42.704Z,-1.13
2023-01-29T19:15:13.014Z,-1.18
2023-01-29T19:17:41.673Z,-1.16
2023-01-29T19:20:09.694Z,-1.19
2023-01-29T19:22:41.705Z,-1.23
2023-01-29T19:25:11.281Z,-1.29
2023-01-29T19:27:37.930Z,-1.35
2023-01-29T19:30:05.829Z,-1.42
2023-01-29T19:32:34.979Z,-1.61
2023-01-29T19:35:04.000Z,-1.57
2023-01-29T19:37:33.007Z,-1.52
2023-01-29T19:39:59.575Z,-1.59
2023-01-29T19:42:28.413Z,-1.64
2023-01-29T19:45:00.305Z,-1.61
2023-01-29T19:47:26.895Z,-1.65
2023-01-29T19:49:53.483Z,-1.69
2023-01-29T19:52:50.164Z,-1.69
2023-01-29T19:55:18.848Z,-1.72
2023-01-29T19:57:48.986Z,-1.67
2023-01-29T20:00:17.464Z,-1.67
2023-01-29T20:02:44.141Z,-1.60
2023-01-29T20:05:14.192Z,-1.61
2023-01-29T20:07:42.384Z,-1.68
2023-01-29T20:10:11.496Z,-1.69
2023-01-29T20:12:38.429Z,-1.75
2023-01-29T20:15:05.264Z,-1.75
2023-01-29T20:17:34.274Z,-1.78
2023-01-29T20:20:00.829Z,-1.78
2023-01-29T20:22:29.300Z,-1.86
2023-01-29T20:24:57.457Z,-1.96
2023-01-29T20:27:27.438Z,-1.96
2023-01-29T20:29:53.987Z,-1.92
2023-01-29T20:32:20.602Z,-1.90
2023-01-29T20:34:52.151Z,-1.81
2023-01-29T20:37:19.585Z,-1.84
2023-01-29T20:39:46.389Z,-1.85
2023-01-29T20:42:13.033Z,-1.87
2023-01-29T20:44:39.621Z,-1.86
2023-01-29T20:47:06.250Z,-2.03
2023-01-29T20:49:33.083Z,-2.22
2023-01-29T20:51:59.783Z,-2.18
2023-01-29T20:54:26.374Z,-2.14
2023-01-29T20:56:55.508Z,-2.15
2023-01-29T20:59:23.111Z,-2.19
2023-01-29T21:01:49.727Z,-2.23
2023-01-29T21:04:16.324Z,-2.27
2023-01-29T21:06:45.105Z,-2.23
2023-01-29T21:09:11.645Z,-2.25
2023-01-29T21:11:38.150Z,-2.35
2023-01-29T21:14:04.907Z,-2.34
2023-01-29T21:16:31.531Z,-2.32
2023-01-29T21:18:58.692Z,-2.44
2023-01-29T21:21:27.774Z,-2.43
2023-01-29T21:23:54.730Z,-2.48
2023-01-29T21:26:27.055Z,-2.50
2023-01-29T21:28:53.703Z,-2.46
2023-01-29T21:31:22.728Z,-2.48
2023-01-29T21:33:49.358Z,-2.48
2023-01-29T21:36:16.026Z,-2.42
2023-01-29T21:38:42.574Z,-2.49
2023-01-29T21:41:12.611Z,-2.46
2023-01-29T21:43:41.833Z,-2.40
2023-01-29T21:46:12.086Z,-2.40
2023-01-29T21:48:44.052Z,-2.50
2023-01-29T21:51:10.598Z,-2.47
2023-01-29T21:53:37.345Z,-2.47
2023-01-29T21:56:05.717Z,-2.48
2023-01-29T21:58:34.658Z,-2.53
2023-01-29T22:01:35.876Z,-2.52
2023-01-29T22:03:49.987Z,-2.62
2023-01-29T22:06:16.616Z,-2.66
2023-01-29T22:08:43.146Z,-2.70
2023-01-29T22:11:09.875Z,-2.82
2023-01-29T22:13:36.609Z,-2.73
2023-01-29T22:16:03.286Z,-2.74
2023-01-29T22:18:32.065Z,-2.75
2023-01-29T22:20:59.563Z,-2.84
2023-01-29T22:23:30.929Z,-2.84
2023-01-29T22:26:08.999Z,-2.82
2023-01-29T22:28:37.952Z,-2.87
2023-01-29T22:31:12.432Z,-2.88
2023-01-29T22:33:46.863Z,-3.02
2023-01-29T22:36:16.511Z,-2.96
2023-01-29T22:38:45.930Z,-3.02
2023-01-29T22:41:13.519Z,-2.92
2023-01-29T22:43:41.092Z,-3.01
2023-01-29T22:46:08.522Z,-3.11
2023-01-29T22:48:35.661Z,-3.04
2023-01-29T22:51:11.403Z,-3.01
2023-01-29T22:53:44.102Z,-3.04
2023-01-29T22:56:13.688Z,-3.04
2023-01-29T22:58:41.210Z,-3.08
2023-01-29T23:01:13.139Z,-3.09
2023-01-29T23:03:39.782Z,-3.09
2023-01-29T23:06:09.354Z,-3.17
2023-01-29T23:08:40.470Z,-3.21
2023-01-29T23:11:14.836Z,-3.17
2023-01-29T23:13:53.136Z,-3.26
2023-01-29T23:16:26.798Z,-3.32
2023-01-29T23:18:55.277Z,-3.25
2023-01-29T23:21:25.164Z,-3.25
2023-01-29T23:23:59.290Z,-3.23
2023-01-29T23:26:44.388Z,-3.27
2023-01-29T23:29:16.189Z,-3.31
2023-01-29T23:31:42.849Z,-3.29
2023-01-29T23:34:12.144Z,-3.35
2023-01-29T23:36:44.177Z,-3.39
2023-01-29T23:39:11.013Z,-3.30
2023-01-29T23:41:39.737Z,-3.28
2023-01-29T23:44:11.049Z,-3.19
2023-01-29T23:46:40.505Z,-3.04
2023-01-29T23:49:07.243Z,-2.98
2023-01-29T23:51:39.017Z,-2.96
2023-01-29T23:54:07.842Z,-2.94
2023-01-29T23:56:34.391Z,-3.12
2023-01-29T23:59:03.896Z,-3.10
